Port Lions, AK (99550)

10:12 PM AKDT on August 30, 2016 (GMT -0800)
Albatross Avenue | | Change Station

Elev 36 ft 57.74 °N, 152.50 °W | Updated 1 minute ago

Clear
Clear
60.3 °F
Feels Like 60.3 °F
N
0.6
Wind Variable Wind from NW
Gusts 1.9 mph

Today
High -- | Low -- °F
--% Chance of Precip.
Yesterday
High -- | Low -- °F
Precip. -- in
Pressure 30.04 in
Visibility 10.0 miles
Clouds Clear
Dew Point 46 °F
Humidity 60%
Rainfall 0.00 in
Snow Depth Not available.
7:09 AM 9:13 PM
Waning Crescent, 1% visible
METAR PADQ 310553Z 29004KT 10SM CLR 12/08 A3004 RMK AO2 SLP172 T01220078 10189 20122 51005
Pressure 30.04 in
Visibility 10.0 miles
Clouds Clear
Dew Point 46 °F
Humidity 60%
Rainfall 0.00 in
Snow Depth Not available.
7:09 AM 9:13 PM
Waning Crescent, 1% visible
METAR PADQ 310553Z 29004KT 10SM CLR 12/08 A3004 RMK AO2 SLP172 T01220078 10189 20122 51005

10-Day Weather Forecast

Almanac

Astronomy

Aug. 30, 2016 Rise Set
Actual Time
Civil Twilight
Nautical Twilight
Astronomical Twilight
Moon
Length of Visible Light
Length of Day
Tomorrow will be .
, % of the Moon is Illuminated

Today's Extremes

State Highs State Lows

Community

WunderPhotos

Upload Photos

1,936,040 photos uploaded!

WunderBlog® & News

Nearby

Air Quality

  Air Quality AQ Index Pollutant
Not available.

Snow Depth

Station Depth Elevation

Earthquake Activity

City Distance Mag. Time & Date
Minimum magnitude displayed is 2.5.

Coastal Water Temperatures

Place Temperature

Stations

Nearby Weather Stations

Station Location Temp. Windchill Dew Point Humidity Wind Precip. Elev Updated Type
                   

Watches & Warnings

There are currently no watches in effect.